East Sutton Ridge, Vermont
Current Conditions -  °F | °C
As of 3:35 PM on Thursday 27 Nov 2014 (Local Time) from KCDA Reporting Station
Overcast Overcast  
Wind Chill: 19°   Ceiling: 1900
Heat Index: 26°   Visibility: 10mi
Dew Point: 18°   Wind: 6mph
Humidity: 74%   Direction: 320°NW
Pressure: 29.98"   Gusts: NA
Location:  44.6632°N, 72.0391°W
Report Text: KCDA 272035Z AUTO 32005KT 10SM OVC019 M03/M08 A2998 RMK AO2 T10351076
Loading
Personal Weather Stations






























Interactive Weather Map New forecast layout! Learn more

10-Day Weather Forecast

Advertisements
Track Severe Weather on mobile